sensor_id;sensor_type;location;lat;lon;timestamp;temperature;humidity
78876;DHT22;68253;52.506;5.486;2023-04-29T00:00:21;10.40;72.20
78876;DHT22;68253;52.506;5.486;2023-04-29T00:02:47;10.30;72.10
78876;DHT22;68253;52.506;5.486;2023-04-29T00:05:13;10.30;72.10
78876;DHT22;68253;52.506;5.486;2023-04-29T00:07:40;10.30;72.00
78876;DHT22;68253;52.506;5.486;2023-04-29T00:10:07;10.30;72.00
78876;DHT22;68253;52.506;5.486;2023-04-29T00:12:33;10.30;72.00
78876;DHT22;68253;52.506;5.486;2023-04-29T00:14:59;10.30;71.90
78876;DHT22;68253;52.506;5.486;2023-04-29T00:17:27;10.30;71.90
78876;DHT22;68253;52.506;5.486;2023-04-29T00:19:53;10.20;71.90
78876;DHT22;68253;52.506;5.486;2023-04-29T00:22:19;10.30;71.90
78876;DHT22;68253;52.506;5.486;2023-04-29T00:24:47;10.30;71.80
78876;DHT22;68253;52.506;5.486;2023-04-29T00:27:13;10.20;71.60
78876;DHT22;68253;52.506;5.486;2023-04-29T00:29:39;10.20;71.60
78876;DHT22;68253;52.506;5.486;2023-04-29T00:32:05;10.20;71.60
78876;DHT22;68253;52.506;5.486;2023-04-29T00:34:31;10.20;71.60
78876;DHT22;68253;52.506;5.486;2023-04-29T00:36:58;10.20;71.60
78876;DHT22;68253;52.506;5.486;2023-04-29T00:39:24;10.20;71.60
78876;DHT22;68253;52.506;5.486;2023-04-29T00:41:51;10.20;71.60
78876;DHT22;68253;52.506;5.486;2023-04-29T00:44:18;10.20;71.70
78876;DHT22;68253;52.506;5.486;2023-04-29T00:46:44;10.30;71.70
78876;DHT22;68253;52.506;5.486;2023-04-29T00:49:10;10.30;71.70
78876;DHT22;68253;52.506;5.486;2023-04-29T00:51:40;10.30;71.60
78876;DHT22;68253;52.506;5.486;2023-04-29T00:54:07;10.30;71.50
78876;DHT22;68253;52.506;5.486;2023-04-29T00:56:34;10.30;71.50
78876;DHT22;68253;52.506;5.486;2023-04-29T00:59:02;10.30;71.50
78876;DHT22;68253;52.506;5.486;2023-04-29T01:01:29;10.30;71.40
78876;DHT22;68253;52.506;5.486;2023-04-29T01:03:56;10.30;71.40
78876;DHT22;68253;52.506;5.486;2023-04-29T01:06:53;10.20;71.30
78876;DHT22;68253;52.506;5.486;2023-04-29T01:09:32;10.20;71.50
78876;DHT22;68253;52.506;5.486;2023-04-29T01:17:30;10.20;71.50
78876;DHT22;68253;52.506;5.486;2023-04-29T01:20:03;10.20;71.50
78876;DHT22;68253;52.506;5.486;2023-04-29T01:22:31;10.20;71.50
78876;DHT22;68253;52.506;5.486;2023-04-29T01:24:57;10.20;71.60
78876;DHT22;68253;52.506;5.486;2023-04-29T01:30:27;10.30;71.60
78876;DHT22;68253;52.506;5.486;2023-04-29T01:33:09;10.30;71.60
78876;DHT22;68253;52.506;5.486;2023-04-29T01:41:43;10.20;71.80
78876;DHT22;68253;52.506;5.486;2023-04-29T01:44:19;10.20;71.90
78876;DHT22;68253;52.506;5.486;2023-04-29T01:46:51;10.20;71.90
78876;DHT22;68253;52.506;5.486;2023-04-29T01:49:28;10.10;72.00
78876;DHT22;68253;52.506;5.486;2023-04-29T01:51:54;10.10;72.10
78876;DHT22;68253;52.506;5.486;2023-04-29T01:54:21;10.10;72.10
78876;DHT22;68253;52.506;5.486;2023-04-29T01:56:48;10.10;72.20
78876;DHT22;68253;52.506;5.486;2023-04-29T01:59:21;10.10;72.20
78876;DHT22;68253;52.506;5.486;2023-04-29T02:01:56;10.10;72.20
78876;DHT22;68253;52.506;5.486;2023-04-29T02:04:24;10.10;72.20
78876;DHT22;68253;52.506;5.486;2023-04-29T02:06:50;10.10;72.20
78876;DHT22;68253;52.506;5.486;2023-04-29T02:09:19;10.10;72.10
78876;DHT22;68253;52.506;5.486;2023-04-29T02:11:52;10.10;72.10
78876;DHT22;68253;52.506;5.486;2023-04-29T02:14:18;10.10;72.00
78876;DHT22;68253;52.506;5.486;2023-04-29T02:16:44;10.10;72.00
78876;DHT22;68253;52.506;5.486;2023-04-29T02:19:10;10.10;72.00
78876;DHT22;68253;52.506;5.486;2023-04-29T02:21:38;10.20;72.00
78876;DHT22;68253;52.506;5.486;2023-04-29T02:24:05;10.20;72.00
78876;DHT22;68253;52.506;5.486;2023-04-29T02:26:32;10.20;71.90
78876;DHT22;68253;52.506;5.486;2023-04-29T02:28:59;10.20;71.90
78876;DHT22;68253;52.506;5.486;2023-04-29T02:31:26;10.20;71.80
78876;DHT22;68253;52.506;5.486;2023-04-29T02:33:54;10.20;71.70
78876;DHT22;68253;52.506;5.486;2023-04-29T02:36:20;10.20;71.70
78876;DHT22;68253;52.506;5.486;2023-04-29T02:38:46;10.20;71.70
78876;DHT22;68253;52.506;5.486;2023-04-29T02:41:18;10.20;71.80
78876;DHT22;68253;52.506;5.486;2023-04-29T02:43:47;10.20;71.80
78876;DHT22;68253;52.506;5.486;2023-04-29T02:46:16;10.20;71.80
78876;DHT22;68253;52.506;5.486;2023-04-29T02:48:44;10.20;71.70
78876;DHT22;68253;52.506;5.486;2023-04-29T02:51:11;10.20;71.70
78876;DHT22;68253;52.506;5.486;2023-04-29T02:53:37;10.20;71.70
78876;DHT22;68253;52.506;5.486;2023-04-29T02:56:03;10.20;71.70
78876;DHT22;68253;52.506;5.486;2023-04-29T02:58:30;10.20;71.60
78876;DHT22;68253;52.506;5.486;2023-04-29T03:00:56;10.20;71.70
78876;DHT22;68253;52.506;5.486;2023-04-29T03:03:22;10.20;71.70
78876;DHT22;68253;52.506;5.486;2023-04-29T03:05:48;10.20;71.70
78876;DHT22;68253;52.506;5.486;2023-04-29T03:08:15;10.10;71.70
78876;DHT22;68253;52.506;5.486;2023-04-29T03:10:41;10.20;71.80
78876;DHT22;68253;52.506;5.486;2023-04-29T03:13:07;10.20;71.80
78876;DHT22;68253;52.506;5.486;2023-04-29T03:15:34;10.20;71.70
78876;DHT22;68253;52.506;5.486;2023-04-29T03:18:01;10.20;71.80
78876;DHT22;68253;52.506;5.486;2023-04-29T03:20:29;10.20;71.70
78876;DHT22;68253;52.506;5.486;2023-04-29T03:22:55;10.20;71.70
78876;DHT22;68253;52.506;5.486;2023-04-29T03:25:22;10.20;71.70
78876;DHT22;68253;52.506;5.486;2023-04-29T03:27:48;10.20;71.60
78876;DHT22;68253;52.506;5.486;2023-04-29T03:30:15;10.10;71.70
78876;DHT22;68253;52.506;5.486;2023-04-29T03:32:47;10.10;71.70
78876;DHT22;68253;52.506;5.486;2023-04-29T03:35:13;10.10;71.80
78876;DHT22;68253;52.506;5.486;2023-04-29T03:37:46;10.10;71.80
78876;DHT22;68253;52.506;5.486;2023-04-29T03:40:22;10.10;71.70
78876;DHT22;68253;52.506;5.486;2023-04-29T03:42:49;10.10;71.70
78876;DHT22;68253;52.506;5.486;2023-04-29T03:45:19;10.10;71.80
78876;DHT22;68253;52.506;5.486;2023-04-29T03:47:45;10.10;71.70
78876;DHT22;68253;52.506;5.486;2023-04-29T03:50:11;10.00;71.70
78876;DHT22;68253;52.506;5.486;2023-04-29T03:52:38;10.00;71.70
78876;DHT22;68253;52.506;5.486;2023-04-29T03:55:10;10.00;71.70
78876;DHT22;68253;52.506;5.486;2023-04-29T03:57:37;10.00;71.70
78876;DHT22;68253;52.506;5.486;2023-04-29T04:00:05;10.00;71.70
78876;DHT22;68253;52.506;5.486;2023-04-29T04:02:39;10.00;71.70
78876;DHT22;68253;52.506;5.486;2023-04-29T04:05:06;10.00;71.70
78876;DHT22;68253;52.506;5.486;2023-04-29T04:07:32;10.00;71.70
78876;DHT22;68253;52.506;5.486;2023-04-29T04:10:24;10.00;71.70
78876;DHT22;68253;52.506;5.486;2023-04-29T04:12:51;10.00;71.70
78876;DHT22;68253;52.506;5.486;2023-04-29T04:15:17;10.00;71.70
78876;DHT22;68253;52.506;5.486;2023-04-29T04:17:43;10.00;71.80
78876;DHT22;68253;52.506;5.486;2023-04-29T04:20:10;10.10;71.80
78876;DHT22;68253;52.506;5.486;2023-04-29T04:22:36;10.10;71.80
78876;DHT22;68253;52.506;5.486;2023-04-29T04:25:19;10.00;71.90
78876;DHT22;68253;52.506;5.486;2023-04-29T04:27:45;10.10;71.90
78876;DHT22;68253;52.506;5.486;2023-04-29T04:30:21;10.10;71.80
78876;DHT22;68253;52.506;5.486;2023-04-29T04:32:47;10.10;71.70
78876;DHT22;68253;52.506;5.486;2023-04-29T04:35:14;10.10;71.70
78876;DHT22;68253;52.506;5.486;2023-04-29T04:37:40;10.10;71.70
78876;DHT22;68253;52.506;5.486;2023-04-29T04:40:07;10.10;71.60
78876;DHT22;68253;52.506;5.486;2023-04-29T04:42:52;10.10;71.60
78876;DHT22;68253;52.506;5.486;2023-04-29T04:45:19;10.10;71.60
78876;DHT22;68253;52.506;5.486;2023-04-29T04:47:49;10.10;71.50
78876;DHT22;68253;52.506;5.486;2023-04-29T04:50:28;10.10;71.50
78876;DHT22;68253;52.506;5.486;2023-04-29T04:52:55;10.10;71.50
78876;DHT22;68253;52.506;5.486;2023-04-29T04:55:39;10.10;71.50
78876;DHT22;68253;52.506;5.486;2023-04-29T04:58:07;10.00;71.50
78876;DHT22;68253;52.506;5.486;2023-04-29T05:00:33;10.00;71.50
78876;DHT22;68253;52.506;5.486;2023-04-29T05:02:59;10.10;71.50
78876;DHT22;68253;52.506;5.486;2023-04-29T05:05:26;10.10;71.40
78876;DHT22;68253;52.506;5.486;2023-04-29T05:07:52;10.10;71.30
78876;DHT22;68253;52.506;5.486;2023-04-29T05:10:23;10.10;71.30
78876;DHT22;68253;52.506;5.486;2023-04-29T05:12:52;10.20;71.30
78876;DHT22;68253;52.506;5.486;2023-04-29T05:15:19;10.20;71.20
78876;DHT22;68253;52.506;5.486;2023-04-29T05:17:48;10.20;71.20
78876;DHT22;68253;52.506;5.486;2023-04-29T05:20:14;10.20;71.30
78876;DHT22;68253;52.506;5.486;2023-04-29T05:22:40;10.20;71.30
78876;DHT22;68253;52.506;5.486;2023-04-29T05:25:07;10.20;71.30
78876;DHT22;68253;52.506;5.486;2023-04-29T05:27:35;10.30;71.20
78876;DHT22;68253;52.506;5.486;2023-04-29T05:30:03;10.30;71.20
78876;DHT22;68253;52.506;5.486;2023-04-29T05:32:29;10.30;71.20
78876;DHT22;68253;52.506;5.486;2023-04-29T05:34:55;10.40;71.10
78876;DHT22;68253;52.506;5.486;2023-04-29T05:37:21;10.40;71.00
78876;DHT22;68253;52.506;5.486;2023-04-29T05:40:01;10.40;71.00
78876;DHT22;68253;52.506;5.486;2023-04-29T05:42:27;10.50;70.80
78876;DHT22;68253;52.506;5.486;2023-04-29T05:44:54;10.50;70.80
78876;DHT22;68253;52.506;5.486;2023-04-29T05:47:20;10.50;70.50
78876;DHT22;68253;52.506;5.486;2023-04-29T05:49:46;10.50;70.40
78876;DHT22;68253;52.506;5.486;2023-04-29T05:52:13;10.50;70.40
78876;DHT22;68253;52.506;5.486;2023-04-29T05:54:44;10.60;70.50
78876;DHT22;68253;52.506;5.486;2023-04-29T05:57:10;10.70;70.40
78876;DHT22;68253;52.506;5.486;2023-04-29T05:59:36;10.80;70.20
78876;DHT22;68253;52.506;5.486;2023-04-29T06:02:04;10.90;70.10
78876;DHT22;68253;52.506;5.486;2023-04-29T06:04:32;11.00;69.90
78876;DHT22;68253;52.506;5.486;2023-04-29T06:06:58;11.10;69.70
78876;DHT22;68253;52.506;5.486;2023-04-29T06:09:43;11.30;69.50
78876;DHT22;68253;52.506;5.486;2023-04-29T06:12:10;11.40;69.10
78876;DHT22;68253;52.506;5.486;2023-04-29T06:14:36;11.50;69.00
78876;DHT22;68253;52.506;5.486;2023-04-29T06:17:02;11.70;68.70
78876;DHT22;68253;52.506;5.486;2023-04-29T06:19:29;11.90;68.50
78876;DHT22;68253;52.506;5.486;2023-04-29T06:21:57;12.20;67.90
78876;DHT22;68253;52.506;5.486;2023-04-29T06:24:23;12.30;67.50
78876;DHT22;68253;52.506;5.486;2023-04-29T06:26:49;12.40;67.20
78876;DHT22;68253;52.506;5.486;2023-04-29T06:29:16;12.30;66.90
78876;DHT22;68253;52.506;5.486;2023-04-29T06:31:42;12.20;67.00
78876;DHT22;68253;52.506;5.486;2023-04-29T06:34:08;12.20;67.00
78876;DHT22;68253;52.506;5.486;2023-04-29T06:36:44;12.30;67.00
78876;DHT22;68253;52.506;5.486;2023-04-29T06:39:21;12.30;66.80
78876;DHT22;68253;52.506;5.486;2023-04-29T06:42:13;12.40;66.70
78876;DHT22;68253;52.506;5.486;2023-04-29T06:44:50;12.50;66.50
78876;DHT22;68253;52.506;5.486;2023-04-29T06:47:32;12.50;66.40
78876;DHT22;68253;52.506;5.486;2023-04-29T06:50:09;12.70;66.30
78876;DHT22;68253;52.506;5.486;2023-04-29T06:52:36;12.80;66.10
78876;DHT22;68253;52.506;5.486;2023-04-29T06:55:03;12.90;65.90
78876;DHT22;68253;52.506;5.486;2023-04-29T06:57:29;13.10;65.80
78876;DHT22;68253;52.506;5.486;2023-04-29T06:59:56;13.10;65.70
78876;DHT22;68253;52.506;5.486;2023-04-29T07:02:24;13.30;65.60
78876;DHT22;68253;52.506;5.486;2023-04-29T07:04:50;13.60;65.20
78876;DHT22;68253;52.506;5.486;2023-04-29T07:07:17;13.90;64.70
78876;DHT22;68253;52.506;5.486;2023-04-29T07:09:43;14.10;64.50
78876;DHT22;68253;52.506;5.486;2023-04-29T07:12:09;14.30;64.00
78876;DHT22;68253;52.506;5.486;2023-04-29T07:14:35;14.50;63.50
78876;DHT22;68253;52.506;5.486;2023-04-29T07:17:03;14.60;63.20
78876;DHT22;68253;52.506;5.486;2023-04-29T07:19:30;14.80;62.80
78876;DHT22;68253;52.506;5.486;2023-04-29T07:21:56;14.90;62.20
78876;DHT22;68253;52.506;5.486;2023-04-29T07:24:22;15.00;62.00
78876;DHT22;68253;52.506;5.486;2023-04-29T07:26:49;15.10;61.20
78876;DHT22;68253;52.506;5.486;2023-04-29T07:29:16;15.20;61.30
78876;DHT22;68253;52.506;5.486;2023-04-29T07:31:42;15.40;61.30
78876;DHT22;68253;52.506;5.486;2023-04-29T07:34:08;15.50;60.80
78876;DHT22;68253;52.506;5.486;2023-04-29T07:36:35;15.60;60.50
78876;DHT22;68253;52.506;5.486;2023-04-29T07:39:01;15.70;60.20
78876;DHT22;68253;52.506;5.486;2023-04-29T07:41:27;15.80;60.10
78876;DHT22;68253;52.506;5.486;2023-04-29T07:43:53;15.80;60.10
78876;DHT22;68253;52.506;5.486;2023-04-29T07:46:20;15.90;60.00
78876;DHT22;68253;52.506;5.486;2023-04-29T07:48:46;16.00;59.90
78876;DHT22;68253;52.506;5.486;2023-04-29T07:51:13;16.00;60.00
78876;DHT22;68253;52.506;5.486;2023-04-29T07:53:41;16.20;59.90
78876;DHT22;68253;52.506;5.486;2023-04-29T07:56:08;16.40;59.80
78876;DHT22;68253;52.506;5.486;2023-04-29T07:58:34;16.50;59.40
78876;DHT22;68253;52.506;5.486;2023-04-29T08:01:05;16.60;59.10
78876;DHT22;68253;52.506;5.486;2023-04-29T08:03:32;16.70;58.60
78876;DHT22;68253;52.506;5.486;2023-04-29T08:06:03;16.80;58.60
78876;DHT22;68253;52.506;5.486;2023-04-29T08:08:30;16.90;58.40
78876;DHT22;68253;52.506;5.486;2023-04-29T08:10:56;16.90;58.30
78876;DHT22;68253;52.506;5.486;2023-04-29T08:13:23;17.00;58.40
78876;DHT22;68253;52.506;5.486;2023-04-29T08:15:50;17.10;58.20
78876;DHT22;68253;52.506;5.486;2023-04-29T08:18:16;17.20;57.80
78876;DHT22;68253;52.506;5.486;2023-04-29T08:20:42;17.20;57.80
78876;DHT22;68253;52.506;5.486;2023-04-29T08:23:08;17.40;57.60
78876;DHT22;68253;52.506;5.486;2023-04-29T08:25:34;17.50;57.20
78876;DHT22;68253;52.506;5.486;2023-04-29T08:28:01;17.60;57.00
78876;DHT22;68253;52.506;5.486;2023-04-29T08:30:27;17.80;56.70
78876;DHT22;68253;52.506;5.486;2023-04-29T08:32:53;17.80;56.50
78876;DHT22;68253;52.506;5.486;2023-04-29T08:35:19;17.80;56.50
78876;DHT22;68253;52.506;5.486;2023-04-29T08:37:45;18.00;56.50
78876;DHT22;68253;52.506;5.486;2023-04-29T08:40:12;18.10;56.00
78876;DHT22;68253;52.506;5.486;2023-04-29T08:42:38;18.10;55.50
78876;DHT22;68253;52.506;5.486;2023-04-29T08:45:05;18.20;55.50
78876;DHT22;68253;52.506;5.486;2023-04-29T08:47:33;18.30;55.70
78876;DHT22;68253;52.506;5.486;2023-04-29T08:50:02;18.40;55.20
78876;DHT22;68253;52.506;5.486;2023-04-29T08:52:31;18.40;55.30
78876;DHT22;68253;52.506;5.486;2023-04-29T08:55:01;18.50;55.30
78876;DHT22;68253;52.506;5.486;2023-04-29T08:57:29;18.60;55.20
78876;DHT22;68253;52.506;5.486;2023-04-29T08:59:58;18.60;55.40
78876;DHT22;68253;52.506;5.486;2023-04-29T09:02:26;18.70;54.90
78876;DHT22;68253;52.506;5.486;2023-04-29T09:05:05;18.70;55.10
78876;DHT22;68253;52.506;5.486;2023-04-29T09:07:34;18.80;55.10
78876;DHT22;68253;52.506;5.486;2023-04-29T09:10:03;18.90;54.80
78876;DHT22;68253;52.506;5.486;2023-04-29T09:12:29;18.90;54.90
78876;DHT22;68253;52.506;5.486;2023-04-29T09:14:56;19.00;54.70
78876;DHT22;68253;52.506;5.486;2023-04-29T09:17:47;19.00;54.60
78876;DHT22;68253;52.506;5.486;2023-04-29T09:23:02;19.20;54.60
78876;DHT22;68253;52.506;5.486;2023-04-29T09:25:29;19.30;54.00
78876;DHT22;68253;52.506;5.486;2023-04-29T09:27:56;19.30;54.30
78876;DHT22;68253;52.506;5.486;2023-04-29T09:30:22;19.40;53.80
78876;DHT22;68253;52.506;5.486;2023-04-29T09:33:08;19.50;53.90
78876;DHT22;68253;52.506;5.486;2023-04-29T09:35:34;19.50;53.90
78876;DHT22;68253;52.506;5.486;2023-04-29T09:38:14;19.60;53.30
78876;DHT22;68253;52.506;5.486;2023-04-29T09:40:43;19.70;53.90
78876;DHT22;68253;52.506;5.486;2023-04-29T09:43:14;19.70;53.90
78876;DHT22;68253;52.506;5.486;2023-04-29T09:45:42;19.90;53.50
78876;DHT22;68253;52.506;5.486;2023-04-29T09:48:10;19.90;53.90
78876;DHT22;68253;52.506;5.486;2023-04-29T09:50:39;20.00;54.00
78876;DHT22;68253;52.506;5.486;2023-04-29T09:53:07;20.10;54.00
78876;DHT22;68253;52.506;5.486;2023-04-29T09:55:58;20.30;54.40
78876;DHT22;68253;52.506;5.486;2023-04-29T09:58:29;20.40;53.70
78876;DHT22;68253;52.506;5.486;2023-04-29T10:00:58;20.40;53.60
78876;DHT22;68253;52.506;5.486;2023-04-29T10:03:34;20.50;53.80
78876;DHT22;68253;52.506;5.486;2023-04-29T10:06:03;20.70;53.10
78876;DHT22;68253;52.506;5.486;2023-04-29T10:08:30;20.70;52.30
78876;DHT22;68253;52.506;5.486;2023-04-29T10:11:01;20.60;52.60
78876;DHT22;68253;52.506;5.486;2023-04-29T10:13:28;20.50;52.50
78876;DHT22;68253;52.506;5.486;2023-04-29T10:18:51;20.60;52.80
78876;DHT22;68253;52.506;5.486;2023-04-29T10:21:20;20.60;52.40
78876;DHT22;68253;52.506;5.486;2023-04-29T10:23:50;20.60;52.20
78876;DHT22;68253;52.506;5.486;2023-04-29T10:26:19;20.60;52.30
78876;DHT22;68253;52.506;5.486;2023-04-29T10:28:46;20.60;52.60
78876;DHT22;68253;52.506;5.486;2023-04-29T10:31:17;20.70;52.50
78876;DHT22;68253;52.506;5.486;2023-04-29T10:33:44;20.80;52.10
78876;DHT22;68253;52.506;5.486;2023-04-29T10:36:12;20.80;51.90
78876;DHT22;68253;52.506;5.486;2023-04-29T10:38:44;20.90;52.20
78876;DHT22;68253;52.506;5.486;2023-04-29T10:41:24;20.90;51.90
78876;DHT22;68253;52.506;5.486;2023-04-29T10:43:51;21.00;52.00
78876;DHT22;68253;52.506;5.486;2023-04-29T10:46:22;21.00;51.70
78876;DHT22;68253;52.506;5.486;2023-04-29T10:48:50;21.10;52.00
78876;DHT22;68253;52.506;5.486;2023-04-29T10:54:07;21.20;51.80
78876;DHT22;68253;52.506;5.486;2023-04-29T10:56:47;21.30;51.90
78876;DHT22;68253;52.506;5.486;2023-04-29T11:01:53;21.50;51.70
78876;DHT22;68253;52.506;5.486;2023-04-29T11:04:21;21.50;51.40
78876;DHT22;68253;52.506;5.486;2023-04-29T11:06:54;21.50;51.00
78876;DHT22;68253;52.506;5.486;2023-04-29T11:09:25;21.50;51.70
78876;DHT22;68253;52.506;5.486;2023-04-29T11:14:40;21.70;51.40
78876;DHT22;68253;52.506;5.486;2023-04-29T11:17:12;21.60;51.60
78876;DHT22;68253;52.506;5.486;2023-04-29T11:19:43;21.70;51.30
78876;DHT22;68253;52.506;5.486;2023-04-29T11:25:07;22.00;51.40
78876;DHT22;68253;52.506;5.486;2023-04-29T11:27:36;22.10;50.80
78876;DHT22;68253;52.506;5.486;2023-04-29T11:30:04;22.20;50.70
78876;DHT22;68253;52.506;5.486;2023-04-29T11:32:33;22.20;50.80
78876;DHT22;68253;52.506;5.486;2023-04-29T11:35:17;22.20;50.40
78876;DHT22;68253;52.506;5.486;2023-04-29T11:37:45;22.20;50.70
78876;DHT22;68253;52.506;5.486;2023-04-29T11:40:12;22.30;50.50
78876;DHT22;68253;52.506;5.486;2023-04-29T11:42:46;22.30;50.90
78876;DHT22;68253;52.506;5.486;2023-04-29T11:45:13;22.30;50.90
78876;DHT22;68253;52.506;5.486;2023-04-29T11:47:47;22.50;50.50
78876;DHT22;68253;52.506;5.486;2023-04-29T11:50:14;22.50;50.50
78876;DHT22;68253;52.506;5.486;2023-04-29T11:52:42;22.60;50.20
78876;DHT22;68253;52.506;5.486;2023-04-29T11:55:10;22.70;51.00
78876;DHT22;68253;52.506;5.486;2023-04-29T11:57:37;22.70;50.20
78876;DHT22;68253;52.506;5.486;2023-04-29T12:00:10;22.70;49.90
78876;DHT22;68253;52.506;5.486;2023-04-29T12:02:38;22.70;49.80
78876;DHT22;68253;52.506;5.486;2023-04-29T12:05:08;22.70;49.60
78876;DHT22;68253;52.506;5.486;2023-04-29T12:07:34;22.80;49.80
78876;DHT22;68253;52.506;5.486;2023-04-29T12:10:02;22.80;49.80
78876;DHT22;68253;52.506;5.486;2023-04-29T12:12:28;22.90;50.30
78876;DHT22;68253;52.506;5.486;2023-04-29T12:14:56;23.00;49.20
78876;DHT22;68253;52.506;5.486;2023-04-29T12:17:23;22.90;49.70
78876;DHT22;68253;52.506;5.486;2023-04-29T12:19:49;22.80;50.00
78876;DHT22;68253;52.506;5.486;2023-04-29T12:22:15;22.80;50.00
78876;DHT22;68253;52.506;5.486;2023-04-29T12:24:41;22.90;49.70
78876;DHT22;68253;52.506;5.486;2023-04-29T12:27:08;22.90;49.40
78876;DHT22;68253;52.506;5.486;2023-04-29T12:29:35;22.80;49.60
78876;DHT22;68253;52.506;5.486;2023-04-29T12:32:02;22.80;50.20
78876;DHT22;68253;52.506;5.486;2023-04-29T12:34:30;22.90;49.60
78876;DHT22;68253;52.506;5.486;2023-04-29T12:36:58;22.80;49.60
78876;DHT22;68253;52.506;5.486;2023-04-29T12:39:25;22.80;49.90
78876;DHT22;68253;52.506;5.486;2023-04-29T12:41:57;22.80;49.80
78876;DHT22;68253;52.506;5.486;2023-04-29T12:44:24;22.80;49.90
78876;DHT22;68253;52.506;5.486;2023-04-29T12:46:50;22.90;50.30
78876;DHT22;68253;52.506;5.486;2023-04-29T12:49:23;23.00;50.20
78876;DHT22;68253;52.506;5.486;2023-04-29T12:51:49;23.10;49.70
78876;DHT22;68253;52.506;5.486;2023-04-29T12:54:15;23.20;49.20
78876;DHT22;68253;52.506;5.486;2023-04-29T12:56:42;23.20;49.80
78876;DHT22;68253;52.506;5.486;2023-04-29T12:59:08;23.20;50.00
78876;DHT22;68253;52.506;5.486;2023-04-29T13:01:36;23.20;48.50
78876;DHT22;68253;52.506;5.486;2023-04-29T13:04:02;23.10;49.00
78876;DHT22;68253;52.506;5.486;2023-04-29T13:06:31;23.00;49.10
78876;DHT22;68253;52.506;5.486;2023-04-29T13:08:57;23.00;49.20
78876;DHT22;68253;52.506;5.486;2023-04-29T13:11:23;23.10;49.00
78876;DHT22;68253;52.506;5.486;2023-04-29T13:13:49;23.10;49.00
78876;DHT22;68253;52.506;5.486;2023-04-29T13:16:16;23.10;48.90
78876;DHT22;68253;52.506;5.486;2023-04-29T13:18:42;23.00;49.00
78876;DHT22;68253;52.506;5.486;2023-04-29T13:21:09;23.00;48.70
78876;DHT22;68253;52.506;5.486;2023-04-29T13:23:35;22.90;48.70
78876;DHT22;68253;52.506;5.486;2023-04-29T13:26:01;22.90;49.00
78876;DHT22;68253;52.506;5.486;2023-04-29T13:28:27;22.90;49.20
78876;DHT22;68253;52.506;5.486;2023-04-29T13:30:53;22.90;49.00
78876;DHT22;68253;52.506;5.486;2023-04-29T13:33:19;22.90;48.70
78876;DHT22;68253;52.506;5.486;2023-04-29T13:35:47;22.90;48.40
78876;DHT22;68253;52.506;5.486;2023-04-29T13:38:13;22.90;48.60
78876;DHT22;68253;52.506;5.486;2023-04-29T13:40:39;22.90;48.80
78876;DHT22;68253;52.506;5.486;2023-04-29T13:43:05;22.90;48.50
78876;DHT22;68253;52.506;5.486;2023-04-29T13:45:32;22.90;47.50
78876;DHT22;68253;52.506;5.486;2023-04-29T13:48:01;22.90;47.80
78876;DHT22;68253;52.506;5.486;2023-04-29T13:50:27;22.90;47.60
78876;DHT22;68253;52.506;5.486;2023-04-29T13:52:54;22.90;47.70
78876;DHT22;68253;52.506;5.486;2023-04-29T13:55:21;22.90;48.00
78876;DHT22;68253;52.506;5.486;2023-04-29T13:57:47;22.90;47.90
78876;DHT22;68253;52.506;5.486;2023-04-29T14:00:14;22.90;47.30
78876;DHT22;68253;52.506;5.486;2023-04-29T14:02:41;22.90;47.80
78876;DHT22;68253;52.506;5.486;2023-04-29T14:05:08;22.80;48.10
78876;DHT22;68253;52.506;5.486;2023-04-29T14:07:35;22.70;48.10
78876;DHT22;68253;52.506;5.486;2023-04-29T14:10:01;22.70;48.10
78876;DHT22;68253;52.506;5.486;2023-04-29T14:12:27;22.70;48.30
78876;DHT22;68253;52.506;5.486;2023-04-29T14:14:53;22.60;48.30
78876;DHT22;68253;52.506;5.486;2023-04-29T14:17:19;22.70;48.20
78876;DHT22;68253;52.506;5.486;2023-04-29T14:19:45;22.70;47.70
78876;DHT22;68253;52.506;5.486;2023-04-29T14:22:12;22.70;48.10
78876;DHT22;68253;52.506;5.486;2023-04-29T14:24:38;22.60;47.60
78876;DHT22;68253;52.506;5.486;2023-04-29T14:27:04;22.50;47.00
78876;DHT22;68253;52.506;5.486;2023-04-29T14:29:31;22.50;47.20
78876;DHT22;68253;52.506;5.486;2023-04-29T14:31:57;22.50;47.70
78876;DHT22;68253;52.506;5.486;2023-04-29T14:34:23;22.50;47.30
78876;DHT22;68253;52.506;5.486;2023-04-29T14:36:50;22.50;47.30
78876;DHT22;68253;52.506;5.486;2023-04-29T14:39:16;22.50;46.70
78876;DHT22;68253;52.506;5.486;2023-04-29T14:41:42;22.50;47.20
78876;DHT22;68253;52.506;5.486;2023-04-29T14:44:09;22.30;47.60
78876;DHT22;68253;52.506;5.486;2023-04-29T14:46:35;22.30;47.50
78876;DHT22;68253;52.506;5.486;2023-04-29T14:49:01;22.20;47.60
78876;DHT22;68253;52.506;5.486;2023-04-29T14:51:29;22.20;47.50
78876;DHT22;68253;52.506;5.486;2023-04-29T14:53:55;22.20;46.40
78876;DHT22;68253;52.506;5.486;2023-04-29T14:56:22;22.20;45.70
78876;DHT22;68253;52.506;5.486;2023-04-29T14:58:48;22.20;46.10
78876;DHT22;68253;52.506;5.486;2023-04-29T15:01:14;22.20;44.90
78876;DHT22;68253;52.506;5.486;2023-04-29T15:03:41;22.10;44.50
78876;DHT22;68253;52.506;5.486;2023-04-29T15:06:07;22.00;44.50
78876;DHT22;68253;52.506;5.486;2023-04-29T15:08:33;21.90;44.00
78876;DHT22;68253;52.506;5.486;2023-04-29T15:10:59;21.70;43.90
78876;DHT22;68253;52.506;5.486;2023-04-29T15:13:25;21.50;43.90
78876;DHT22;68253;52.506;5.486;2023-04-29T15:15:51;21.30;44.10
78876;DHT22;68253;52.506;5.486;2023-04-29T15:18:18;21.10;44.20
78876;DHT22;68253;52.506;5.486;2023-04-29T15:20:44;21.00;45.00
78876;DHT22;68253;52.506;5.486;2023-04-29T15:23:11;20.90;44.80
78876;DHT22;68253;52.506;5.486;2023-04-29T15:25:37;20.60;45.00
78876;DHT22;68253;52.506;5.486;2023-04-29T15:28:03;20.50;45.40
78876;DHT22;68253;52.506;5.486;2023-04-29T15:30:31;20.20;45.10
78876;DHT22;68253;52.506;5.486;2023-04-29T15:32:57;20.00;45.40
78876;DHT22;68253;52.506;5.486;2023-04-29T15:35:23;19.70;46.50
78876;DHT22;68253;52.506;5.486;2023-04-29T15:37:49;19.60;46.50
78876;DHT22;68253;52.506;5.486;2023-04-29T15:40:16;19.40;46.30
78876;DHT22;68253;52.506;5.486;2023-04-29T15:42:42;19.20;46.70
78876;DHT22;68253;52.506;5.486;2023-04-29T15:45:09;19.20;47.00
78876;DHT22;68253;52.506;5.486;2023-04-29T15:47:35;19.10;46.80
78876;DHT22;68253;52.506;5.486;2023-04-29T15:50:02;18.90;46.90
78876;DHT22;68253;52.506;5.486;2023-04-29T15:52:28;18.80;46.90
78876;DHT22;68253;52.506;5.486;2023-04-29T15:54:54;18.70;47.60
78876;DHT22;68253;52.506;5.486;2023-04-29T15:57:20;18.60;46.80
78876;DHT22;68253;52.506;5.486;2023-04-29T15:59:46;18.50;46.90
78876;DHT22;68253;52.506;5.486;2023-04-29T16:02:12;18.40;47.00
78876;DHT22;68253;52.506;5.486;2023-04-29T16:04:40;18.30;47.40
78876;DHT22;68253;52.506;5.486;2023-04-29T16:07:06;18.10;47.20